sensor_id;sensor_type;location;lat;lon;timestamp;P1;durP1;ratioP1;P2;durP2;ratioP2
28836;SDS011;50669;50.982;11.022;2022-09-29T00:00:50;7.95;;;5.13;;
28836;SDS011;50669;50.982;11.022;2022-09-29T00:03:20;7.10;;;5.13;;
28836;SDS011;50669;50.982;11.022;2022-09-29T00:05:50;7.07;;;5.00;;
28836;SDS011;50669;50.982;11.022;2022-09-29T00:08:17;7.20;;;4.97;;
28836;SDS011;50669;50.982;11.022;2022-09-29T00:10:46;6.97;;;4.90;;
28836;SDS011;50669;50.982;11.022;2022-09-29T00:13:12;8.95;;;5.05;;
28836;SDS011;50669;50.982;11.022;2022-09-29T00:15:41;8.43;;;5.10;;
28836;SDS011;50669;50.982;11.022;2022-09-29T00:18:10;6.63;;;4.93;;
28836;SDS011;50669;50.982;11.022;2022-09-29T00:20:35;7.00;;;5.03;;
28836;SDS011;50669;50.982;11.022;2022-09-29T00:23:05;8.63;;;5.47;;
28836;SDS011;50669;50.982;11.022;2022-09-29T00:25:30;7.53;;;5.13;;
28836;SDS011;50669;50.982;11.022;2022-09-29T00:28:03;6.72;;;4.68;;
28836;SDS011;50669;50.982;11.022;2022-09-29T00:30:29;8.43;;;5.50;;
28836;SDS011;50669;50.982;11.022;2022-09-29T00:32:54;6.18;;;4.28;;
28836;SDS011;50669;50.982;11.022;2022-09-29T00:35:20;6.72;;;4.80;;
28836;SDS011;50669;50.982;11.022;2022-09-29T00:37:46;7.22;;;5.22;;
28836;SDS011;50669;50.982;11.022;2022-09-29T00:40:12;7.18;;;5.05;;
28836;SDS011;50669;50.982;11.022;2022-09-29T00:42:37;7.10;;;5.32;;
28836;SDS011;50669;50.982;11.022;2022-09-29T00:45:22;6.25;;;5.00;;
28836;SDS011;50669;50.982;11.022;2022-09-29T00:48:12;6.88;;;5.03;;
28836;SDS011;50669;50.982;11.022;2022-09-29T00:50:46;7.07;;;4.30;;
28836;SDS011;50669;50.982;11.022;2022-09-29T00:53:18;7.50;;;5.18;;
28836;SDS011;50669;50.982;11.022;2022-09-29T00:56:04;8.23;;;5.03;;
28836;SDS011;50669;50.982;11.022;2022-09-29T00:58:37;6.72;;;4.50;;
28836;SDS011;50669;50.982;11.022;2022-09-29T01:01:07;9.38;;;4.53;;
28836;SDS011;50669;50.982;11.022;2022-09-29T01:03:36;7.75;;;4.53;;
28836;SDS011;50669;50.982;11.022;2022-09-29T01:06:09;5.80;;;4.53;;
28836;SDS011;50669;50.982;11.022;2022-09-29T01:11:15;7.10;;;4.95;;
28836;SDS011;50669;50.982;11.022;2022-09-29T01:13:48;8.00;;;5.13;;
28836;SDS011;50669;50.982;11.022;2022-09-29T01:16:16;7.38;;;4.40;;
28836;SDS011;50669;50.982;11.022;2022-09-29T01:18:42;6.35;;;4.20;;
28836;SDS011;50669;50.982;11.022;2022-09-29T01:27:13;6.53;;;4.20;;
28836;SDS011;50669;50.982;11.022;2022-09-29T01:35:16;5.82;;;3.92;;
28836;SDS011;50669;50.982;11.022;2022-09-29T01:38:11;6.68;;;3.95;;
28836;SDS011;50669;50.982;11.022;2022-09-29T01:41:14;5.80;;;4.43;;
28836;SDS011;50669;50.982;11.022;2022-09-29T01:46:53;5.47;;;4.15;;
28836;SDS011;50669;50.982;11.022;2022-09-29T01:49:28;6.78;;;4.60;;
28836;SDS011;50669;50.982;11.022;2022-09-29T01:52:03;6.18;;;4.57;;
28836;SDS011;50669;50.982;11.022;2022-09-29T01:54:43;7.15;;;4.97;;
28836;SDS011;50669;50.982;11.022;2022-09-29T01:57:27;10.25;;;7.07;;
28836;SDS011;50669;50.982;11.022;2022-09-29T01:59:56;8.45;;;4.80;;
28836;SDS011;50669;50.982;11.022;2022-09-29T02:02:33;5.10;;;4.07;;
28836;SDS011;50669;50.982;11.022;2022-09-29T02:05:16;6.53;;;4.40;;
28836;SDS011;50669;50.982;11.022;2022-09-29T02:07:46;7.63;;;4.53;;
28836;SDS011;50669;50.982;11.022;2022-09-29T02:10:18;5.07;;;4.10;;
28836;SDS011;50669;50.982;11.022;2022-09-29T02:12:50;6.05;;;4.00;;
28836;SDS011;50669;50.982;11.022;2022-09-29T02:15:22;5.05;;;3.83;;
28836;SDS011;50669;50.982;11.022;2022-09-29T02:17:52;6.28;;;4.03;;
28836;SDS011;50669;50.982;11.022;2022-09-29T02:20:21;4.57;;;3.90;;
28836;SDS011;50669;50.982;11.022;2022-09-29T02:22:48;5.50;;;4.25;;
28836;SDS011;50669;50.982;11.022;2022-09-29T02:25:15;5.28;;;4.32;;
28836;SDS011;50669;50.982;11.022;2022-09-29T02:27:43;6.05;;;4.47;;
28836;SDS011;50669;50.982;11.022;2022-09-29T02:30:10;5.15;;;3.90;;
28836;SDS011;50669;50.982;11.022;2022-09-29T02:32:36;4.10;;;3.70;;
28836;SDS011;50669;50.982;11.022;2022-09-29T02:35:05;4.95;;;3.83;;
28836;SDS011;50669;50.982;11.022;2022-09-29T02:40:31;5.43;;;4.40;;
28836;SDS011;50669;50.982;11.022;2022-09-29T02:51:36;5.25;;;3.80;;
28836;SDS011;50669;50.982;11.022;2022-09-29T02:59:24;7.35;;;4.93;;
28836;SDS011;50669;50.982;11.022;2022-09-29T03:01:55;7.60;;;4.75;;
28836;SDS011;50669;50.982;11.022;2022-09-29T03:04:24;5.55;;;4.43;;
28836;SDS011;50669;50.982;11.022;2022-09-29T03:06:51;5.30;;;4.00;;
28836;SDS011;50669;50.982;11.022;2022-09-29T03:09:17;4.82;;;4.13;;
28836;SDS011;50669;50.982;11.022;2022-09-29T03:11:42;5.32;;;3.80;;
28836;SDS011;50669;50.982;11.022;2022-09-29T03:14:13;5.07;;;3.88;;
28836;SDS011;50669;50.982;11.022;2022-09-29T03:16:38;5.85;;;3.97;;
28836;SDS011;50669;50.982;11.022;2022-09-29T03:19:07;3.83;;;3.30;;
28836;SDS011;50669;50.982;11.022;2022-09-29T03:21:32;5.05;;;3.85;;
28836;SDS011;50669;50.982;11.022;2022-09-29T03:23:59;4.53;;;3.78;;
28836;SDS011;50669;50.982;11.022;2022-09-29T03:26:25;8.38;;;6.05;;
28836;SDS011;50669;50.982;11.022;2022-09-29T03:28:54;5.40;;;4.18;;
28836;SDS011;50669;50.982;11.022;2022-09-29T03:31:19;5.18;;;4.00;;
28836;SDS011;50669;50.982;11.022;2022-09-29T03:33:46;6.72;;;3.92;;
28836;SDS011;50669;50.982;11.022;2022-09-29T03:36:12;6.07;;;4.20;;
28836;SDS011;50669;50.982;11.022;2022-09-29T03:38:39;5.38;;;4.20;;
28836;SDS011;50669;50.982;11.022;2022-09-29T03:41:05;6.15;;;4.43;;
28836;SDS011;50669;50.982;11.022;2022-09-29T03:43:31;5.45;;;4.30;;
28836;SDS011;50669;50.982;11.022;2022-09-29T03:45:57;6.40;;;4.50;;
28836;SDS011;50669;50.982;11.022;2022-09-29T03:48:23;7.00;;;4.85;;
28836;SDS011;50669;50.982;11.022;2022-09-29T03:50:57;7.60;;;4.78;;
28836;SDS011;50669;50.982;11.022;2022-09-29T03:53:23;5.93;;;4.70;;
28836;SDS011;50669;50.982;11.022;2022-09-29T03:55:48;7.13;;;4.25;;
28836;SDS011;50669;50.982;11.022;2022-09-29T03:58:17;7.10;;;4.90;;
28836;SDS011;50669;50.982;11.022;2022-09-29T04:00:43;7.55;;;5.15;;
28836;SDS011;50669;50.982;11.022;2022-09-29T04:03:09;7.47;;;4.63;;
28836;SDS011;50669;50.982;11.022;2022-09-29T04:05:35;4.63;;;4.00;;
28836;SDS011;50669;50.982;11.022;2022-09-29T04:08:02;6.40;;;4.43;;
28836;SDS011;50669;50.982;11.022;2022-09-29T04:10:29;7.32;;;4.68;;
28836;SDS011;50669;50.982;11.022;2022-09-29T04:12:54;5.55;;;4.03;;
28836;SDS011;50669;50.982;11.022;2022-09-29T04:15:20;6.88;;;4.28;;
28836;SDS011;50669;50.982;11.022;2022-09-29T04:17:45;6.57;;;4.35;;
28836;SDS011;50669;50.982;11.022;2022-09-29T04:20:11;6.47;;;4.43;;
28836;SDS011;50669;50.982;11.022;2022-09-29T04:22:37;6.07;;;4.30;;
28836;SDS011;50669;50.982;11.022;2022-09-29T04:25:04;8.25;;;5.20;;
28836;SDS011;50669;50.982;11.022;2022-09-29T04:27:30;7.32;;;4.85;;
28836;SDS011;50669;50.982;11.022;2022-09-29T04:29:56;6.78;;;4.68;;
28836;SDS011;50669;50.982;11.022;2022-09-29T04:32:22;9.02;;;5.38;;
28836;SDS011;50669;50.982;11.022;2022-09-29T04:34:48;7.18;;;5.43;;
28836;SDS011;50669;50.982;11.022;2022-09-29T04:37:14;6.70;;;4.75;;
28836;SDS011;50669;50.982;11.022;2022-09-29T04:39:39;8.43;;;4.97;;
28836;SDS011;50669;50.982;11.022;2022-09-29T04:42:08;6.85;;;5.03;;
28836;SDS011;50669;50.982;11.022;2022-09-29T04:44:34;13.25;;;4.90;;
28836;SDS011;50669;50.982;11.022;2022-09-29T04:47:02;10.10;;;5.93;;
28836;SDS011;50669;50.982;11.022;2022-09-29T04:49:28;9.85;;;5.15;;
28836;SDS011;50669;50.982;11.022;2022-09-29T04:51:54;7.95;;;4.65;;
28836;SDS011;50669;50.982;11.022;2022-09-29T04:54:19;5.45;;;4.10;;
28836;SDS011;50669;50.982;11.022;2022-09-29T04:56:48;8.88;;;5.00;;
28836;SDS011;50669;50.982;11.022;2022-09-29T04:59:19;8.57;;;4.80;;
28836;SDS011;50669;50.982;11.022;2022-09-29T05:01:45;11.32;;;5.45;;
28836;SDS011;50669;50.982;11.022;2022-09-29T05:04:10;19.38;;;7.90;;
28836;SDS011;50669;50.982;11.022;2022-09-29T05:06:37;9.77;;;6.70;;
28836;SDS011;50669;50.982;11.022;2022-09-29T05:09:06;12.60;;;7.57;;
28836;SDS011;50669;50.982;11.022;2022-09-29T05:11:35;11.27;;;7.80;;
28836;SDS011;50669;50.982;11.022;2022-09-29T05:14:00;13.57;;;7.53;;
28836;SDS011;50669;50.982;11.022;2022-09-29T05:16:29;12.50;;;7.78;;
28836;SDS011;50669;50.982;11.022;2022-09-29T05:18:57;15.48;;;8.70;;
28836;SDS011;50669;50.982;11.022;2022-09-29T05:21:23;11.32;;;7.82;;
28836;SDS011;50669;50.982;11.022;2022-09-29T05:23:49;8.68;;;6.93;;
28836;SDS011;50669;50.982;11.022;2022-09-29T05:26:17;12.75;;;7.00;;
28836;SDS011;50669;50.982;11.022;2022-09-29T05:28:43;10.95;;;7.35;;
28836;SDS011;50669;50.982;11.022;2022-09-29T05:31:11;16.88;;;8.13;;
28836;SDS011;50669;50.982;11.022;2022-09-29T05:33:39;14.48;;;7.40;;
28836;SDS011;50669;50.982;11.022;2022-09-29T05:36:07;12.23;;;8.25;;
28836;SDS011;50669;50.982;11.022;2022-09-29T05:38:37;11.32;;;7.30;;
28836;SDS011;50669;50.982;11.022;2022-09-29T05:41:10;14.65;;;7.97;;
28836;SDS011;50669;50.982;11.022;2022-09-29T05:43:36;11.13;;;7.57;;
28836;SDS011;50669;50.982;11.022;2022-09-29T05:46:03;12.18;;;6.72;;
28836;SDS011;50669;50.982;11.022;2022-09-29T05:48:30;12.30;;;7.05;;
28836;SDS011;50669;50.982;11.022;2022-09-29T05:50:57;10.88;;;6.95;;
28836;SDS011;50669;50.982;11.022;2022-09-29T05:53:32;11.43;;;7.20;;
28836;SDS011;50669;50.982;11.022;2022-09-29T05:55:57;12.35;;;7.85;;
28836;SDS011;50669;50.982;11.022;2022-09-29T05:58:25;16.58;;;7.60;;
28836;SDS011;50669;50.982;11.022;2022-09-29T06:00:51;8.80;;;6.57;;
28836;SDS011;50669;50.982;11.022;2022-09-29T06:03:16;10.90;;;6.97;;
28836;SDS011;50669;50.982;11.022;2022-09-29T06:05:42;10.88;;;6.82;;
28836;SDS011;50669;50.982;11.022;2022-09-29T06:08:12;14.00;;;7.72;;
28836;SDS011;50669;50.982;11.022;2022-09-29T06:10:38;9.52;;;6.47;;
28836;SDS011;50669;50.982;11.022;2022-09-29T06:13:04;9.40;;;7.32;;
28836;SDS011;50669;50.982;11.022;2022-09-29T06:15:29;9.70;;;7.43;;
28836;SDS011;50669;50.982;11.022;2022-09-29T06:17:58;10.85;;;9.57;;
28836;SDS011;50669;50.982;11.022;2022-09-29T06:20:25;12.65;;;7.38;;
28836;SDS011;50669;50.982;11.022;2022-09-29T06:22:53;14.02;;;8.15;;
28836;SDS011;50669;50.982;11.022;2022-09-29T06:25:19;12.40;;;7.88;;
28836;SDS011;50669;50.982;11.022;2022-09-29T06:27:45;10.27;;;7.80;;
28836;SDS011;50669;50.982;11.022;2022-09-29T06:30:13;10.10;;;6.30;;
28836;SDS011;50669;50.982;11.022;2022-09-29T06:32:42;9.15;;;6.40;;
28836;SDS011;50669;50.982;11.022;2022-09-29T06:35:07;9.35;;;7.03;;
28836;SDS011;50669;50.982;11.022;2022-09-29T06:37:52;9.73;;;6.68;;
28836;SDS011;50669;50.982;11.022;2022-09-29T06:40:20;8.00;;;6.20;;
28836;SDS011;50669;50.982;11.022;2022-09-29T06:42:49;11.43;;;6.97;;
28836;SDS011;50669;50.982;11.022;2022-09-29T06:45:15;12.93;;;7.10;;
28836;SDS011;50669;50.982;11.022;2022-09-29T06:47:43;17.55;;;7.38;;
28836;SDS011;50669;50.982;11.022;2022-09-29T06:50:11;10.90;;;6.93;;
28836;SDS011;50669;50.982;11.022;2022-09-29T06:52:37;9.93;;;6.82;;
28836;SDS011;50669;50.982;11.022;2022-09-29T06:55:02;9.95;;;7.03;;
28836;SDS011;50669;50.982;11.022;2022-09-29T06:57:28;11.55;;;7.88;;
28836;SDS011;50669;50.982;11.022;2022-09-29T06:59:56;8.80;;;6.97;;
28836;SDS011;50669;50.982;11.022;2022-09-29T07:02:22;9.80;;;7.05;;
28836;SDS011;50669;50.982;11.022;2022-09-29T07:04:47;11.45;;;7.20;;
28836;SDS011;50669;50.982;11.022;2022-09-29T07:07:15;10.05;;;6.82;;
28836;SDS011;50669;50.982;11.022;2022-09-29T07:09:41;10.68;;;8.20;;
28836;SDS011;50669;50.982;11.022;2022-09-29T07:12:06;12.75;;;9.05;;
28836;SDS011;50669;50.982;11.022;2022-09-29T07:14:32;13.18;;;8.35;;
28836;SDS011;50669;50.982;11.022;2022-09-29T07:16:58;10.43;;;7.43;;
28836;SDS011;50669;50.982;11.022;2022-09-29T07:19:24;14.98;;;8.45;;
28836;SDS011;50669;50.982;11.022;2022-09-29T07:21:50;9.55;;;7.53;;
28836;SDS011;50669;50.982;11.022;2022-09-29T07:24:16;11.70;;;7.82;;
28836;SDS011;50669;50.982;11.022;2022-09-29T07:26:42;12.52;;;9.68;;
28836;SDS011;50669;50.982;11.022;2022-09-29T07:29:08;16.10;;;8.48;;
28836;SDS011;50669;50.982;11.022;2022-09-29T07:31:33;11.35;;;7.97;;
28836;SDS011;50669;50.982;11.022;2022-09-29T07:33:59;11.55;;;8.57;;
28836;SDS011;50669;50.982;11.022;2022-09-29T07:36:27;12.05;;;8.77;;
28836;SDS011;50669;50.982;11.022;2022-09-29T07:38:55;10.25;;;8.30;;
28836;SDS011;50669;50.982;11.022;2022-09-29T07:41:25;11.38;;;7.22;;
28836;SDS011;50669;50.982;11.022;2022-09-29T07:43:52;9.55;;;7.20;;
28836;SDS011;50669;50.982;11.022;2022-09-29T07:46:18;10.23;;;7.55;;
28836;SDS011;50669;50.982;11.022;2022-09-29T07:48:43;9.98;;;6.95;;
28836;SDS011;50669;50.982;11.022;2022-09-29T07:51:12;9.23;;;6.25;;
28836;SDS011;50669;50.982;11.022;2022-09-29T07:53:40;8.77;;;6.47;;
28836;SDS011;50669;50.982;11.022;2022-09-29T07:56:10;12.65;;;7.82;;
28836;SDS011;50669;50.982;11.022;2022-09-29T07:58:43;13.45;;;8.18;;
28836;SDS011;50669;50.982;11.022;2022-09-29T08:01:10;12.02;;;8.82;;
28836;SDS011;50669;50.982;11.022;2022-09-29T08:03:41;10.40;;;7.82;;
28836;SDS011;50669;50.982;11.022;2022-09-29T08:06:08;17.02;;;8.50;;
28836;SDS011;50669;50.982;11.022;2022-09-29T08:08:35;11.38;;;7.53;;
28836;SDS011;50669;50.982;11.022;2022-09-29T08:11:12;9.30;;;7.05;;
28836;SDS011;50669;50.982;11.022;2022-09-29T08:13:39;10.27;;;7.20;;
28836;SDS011;50669;50.982;11.022;2022-09-29T08:16:06;9.43;;;7.05;;
28836;SDS011;50669;50.982;11.022;2022-09-29T08:18:35;9.75;;;6.63;;
28836;SDS011;50669;50.982;11.022;2022-09-29T08:21:01;8.23;;;6.13;;
28836;SDS011;50669;50.982;11.022;2022-09-29T08:23:28;7.07;;;5.85;;
28836;SDS011;50669;50.982;11.022;2022-09-29T08:26:09;7.95;;;5.78;;
28836;SDS011;50669;50.982;11.022;2022-09-29T08:28:39;9.52;;;4.75;;
28836;SDS011;50669;50.982;11.022;2022-09-29T08:31:07;6.93;;;4.75;;
28836;SDS011;50669;50.982;11.022;2022-09-29T08:33:34;8.07;;;5.00;;
28836;SDS011;50669;50.982;11.022;2022-09-29T08:36:01;8.95;;;5.43;;
28836;SDS011;50669;50.982;11.022;2022-09-29T08:38:32;10.40;;;4.57;;
28836;SDS011;50669;50.982;11.022;2022-09-29T08:41:01;7.40;;;5.55;;
28836;SDS011;50669;50.982;11.022;2022-09-29T08:48:45;7.57;;;5.85;;
28836;SDS011;50669;50.982;11.022;2022-09-29T08:51:21;7.55;;;5.43;;
28836;SDS011;50669;50.982;11.022;2022-09-29T08:53:56;10.35;;;5.57;;
28836;SDS011;50669;50.982;11.022;2022-09-29T08:56:31;9.20;;;5.95;;
28836;SDS011;50669;50.982;11.022;2022-09-29T08:58:58;8.48;;;6.10;;
28836;SDS011;50669;50.982;11.022;2022-09-29T09:15:46;7.47;;;5.38;;
28836;SDS011;50669;50.982;11.022;2022-09-29T09:21:09;7.05;;;5.88;;
28836;SDS011;50669;50.982;11.022;2022-09-29T09:23:52;12.18;;;6.15;;
28836;SDS011;50669;50.982;11.022;2022-09-29T09:26:35;10.10;;;5.68;;
28836;SDS011;50669;50.982;11.022;2022-09-29T09:29:16;8.23;;;5.40;;
28836;SDS011;50669;50.982;11.022;2022-09-29T09:31:45;10.00;;;5.40;;
28836;SDS011;50669;50.982;11.022;2022-09-29T09:36:54;8.75;;;4.97;;
28836;SDS011;50669;50.982;11.022;2022-09-29T09:39:36;5.40;;;4.28;;
28836;SDS011;50669;50.982;11.022;2022-09-29T09:42:26;9.70;;;4.45;;
28836;SDS011;50669;50.982;11.022;2022-09-29T09:45:03;4.78;;;3.67;;
28836;SDS011;50669;50.982;11.022;2022-09-29T09:47:37;5.25;;;3.90;;
28836;SDS011;50669;50.982;11.022;2022-09-29T09:50:14;5.40;;;3.83;;
28836;SDS011;50669;50.982;11.022;2022-09-29T09:55:18;4.88;;;3.60;;
28836;SDS011;50669;50.982;11.022;2022-09-29T10:00:24;3.13;;;2.83;;
28836;SDS011;50669;50.982;11.022;2022-09-29T10:02:56;3.38;;;2.88;;
28836;SDS011;50669;50.982;11.022;2022-09-29T10:05:34;3.40;;;3.10;;
28836;SDS011;50669;50.982;11.022;2022-09-29T10:08:03;4.38;;;3.60;;
28836;SDS011;50669;50.982;11.022;2022-09-29T10:10:36;4.80;;;3.17;;
28836;SDS011;50669;50.982;11.022;2022-09-29T10:13:08;5.28;;;3.03;;
28836;SDS011;50669;50.982;11.022;2022-09-29T10:15:48;5.60;;;3.47;;
28836;SDS011;50669;50.982;11.022;2022-09-29T10:18:31;3.97;;;2.50;;
28836;SDS011;50669;50.982;11.022;2022-09-29T10:21:20;3.67;;;2.80;;
28836;SDS011;50669;50.982;11.022;2022-09-29T10:23:54;4.82;;;3.05;;
28836;SDS011;50669;50.982;11.022;2022-09-29T10:26:43;6.95;;;3.50;;
28836;SDS011;50669;50.982;11.022;2022-09-29T10:32:04;5.03;;;2.85;;
28836;SDS011;50669;50.982;11.022;2022-09-29T10:34:31;3.47;;;2.78;;
28836;SDS011;50669;50.982;11.022;2022-09-29T10:37:04;3.92;;;3.15;;
28836;SDS011;50669;50.982;11.022;2022-09-29T10:40:03;4.47;;;2.72;;
28836;SDS011;50669;50.982;11.022;2022-09-29T10:42:42;4.70;;;2.92;;
28836;SDS011;50669;50.982;11.022;2022-09-29T10:52:54;4.18;;;3.20;;
28836;SDS011;50669;50.982;11.022;2022-09-29T10:55:22;3.10;;;2.38;;
28836;SDS011;50669;50.982;11.022;2022-09-29T10:57:55;4.40;;;2.58;;
28836;SDS011;50669;50.982;11.022;2022-09-29T11:00:36;5.85;;;2.83;;
28836;SDS011;50669;50.982;11.022;2022-09-29T11:03:07;5.47;;;2.95;;
28836;SDS011;50669;50.982;11.022;2022-09-29T11:08:31;4.28;;;3.17;;
28836;SDS011;50669;50.982;11.022;2022-09-29T11:13:44;7.22;;;3.05;;
28836;SDS011;50669;50.982;11.022;2022-09-29T11:19:12;6.70;;;3.10;;
28836;SDS011;50669;50.982;11.022;2022-09-29T11:22:01;4.32;;;2.30;;
28836;SDS011;50669;50.982;11.022;2022-09-29T11:35:37;3.17;;;1.63;;
28836;SDS011;50669;50.982;11.022;2022-09-29T11:38:23;3.58;;;2.35;;
28836;SDS011;50669;50.982;11.022;2022-09-29T11:54:53;5.00;;;2.03;;
28836;SDS011;50669;50.982;11.022;2022-09-29T12:03:36;6.53;;;4.93;;
28836;SDS011;50669;50.982;11.022;2022-09-29T12:17:37;4.97;;;1.90;;
28836;SDS011;50669;50.982;11.022;2022-09-29T12:20:29;4.03;;;2.17;;
28836;SDS011;50669;50.982;11.022;2022-09-29T12:23:06;6.47;;;2.05;;
28836;SDS011;50669;50.982;11.022;2022-09-29T12:25:37;4.10;;;2.00;;
28836;SDS011;50669;50.982;11.022;2022-09-29T12:30:43;9.15;;;2.50;;
28836;SDS011;50669;50.982;11.022;2022-09-29T12:41:51;4.15;;;2.17;;
28836;SDS011;50669;50.982;11.022;2022-09-29T12:44:29;4.00;;;2.42;;
28836;SDS011;50669;50.982;11.022;2022-09-29T12:47:01;4.55;;;2.28;;
28836;SDS011;50669;50.982;11.022;2022-09-29T12:49:54;3.17;;;1.92;;
28836;SDS011;50669;50.982;11.022;2022-09-29T12:52:28;3.17;;;2.00;;
28836;SDS011;50669;50.982;11.022;2022-09-29T12:55:03;5.10;;;2.38;;
28836;SDS011;50669;50.982;11.022;2022-09-29T12:57:39;9.40;;;3.13;;
28836;SDS011;50669;50.982;11.022;2022-09-29T13:00:13;2.97;;;2.33;;
28836;SDS011;50669;50.982;11.022;2022-09-29T13:13:18;3.78;;;1.95;;
28836;SDS011;50669;50.982;11.022;2022-09-29T13:22:23;4.15;;;2.00;;
28836;SDS011;50669;50.982;11.022;2022-09-29T13:25:21;3.00;;;2.00;;
28836;SDS011;50669;50.982;11.022;2022-09-29T13:27:58;5.37;;;2.57;;
28836;SDS011;50669;50.982;11.022;2022-09-29T13:30:26;10.65;;;2.83;;
28836;SDS011;50669;50.982;11.022;2022-09-29T13:33:38;5.18;;;2.53;;
28836;SDS011;50669;50.982;11.022;2022-09-29T13:35:45;4.70;;;2.40;;
28836;SDS011;50669;50.982;11.022;2022-09-29T13:38:19;4.45;;;2.65;;
28836;SDS011;50669;50.982;11.022;2022-09-29T13:51:38;3.95;;;2.20;;
28836;SDS011;50669;50.982;11.022;2022-09-29T13:54:28;3.92;;;2.15;;
28836;SDS011;50669;50.982;11.022;2022-09-29T13:59:59;4.88;;;1.90;;
28836;SDS011;50669;50.982;11.022;2022-09-29T14:05:04;3.60;;;1.63;;
28836;SDS011;50669;50.982;11.022;2022-09-29T14:15:39;6.22;;;1.25;;
28836;SDS011;50669;50.982;11.022;2022-09-29T14:18:22;1.45;;;0.98;;
28836;SDS011;50669;50.982;11.022;2022-09-29T14:21:01;2.60;;;1.30;;
28836;SDS011;50669;50.982;11.022;2022-09-29T14:23:50;2.78;;;1.30;;
28836;SDS011;50669;50.982;11.022;2022-09-29T14:29:17;4.28;;;1.60;;
28836;SDS011;50669;50.982;11.022;2022-09-29T14:32:00;7.53;;;1.70;;
28836;SDS011;50669;50.982;11.022;2022-09-29T14:34:29;2.83;;;1.67;;
28836;SDS011;50669;50.982;11.022;2022-09-29T14:36:57;2.33;;;1.67;;
28836;SDS011;50669;50.982;11.022;2022-09-29T14:39:24;3.88;;;1.33;;
28836;SDS011;50669;50.982;11.022;2022-09-29T14:41:51;2.13;;;1.30;;
28836;SDS011;50669;50.982;11.022;2022-09-29T14:44:22;2.67;;;1.45;;
28836;SDS011;50669;50.982;11.022;2022-09-29T14:47:17;3.30;;;1.80;;
28836;SDS011;50669;50.982;11.022;2022-09-29T14:53:45;3.08;;;1.50;;
28836;SDS011;50669;50.982;11.022;2022-09-29T14:56:45;6.50;;;1.88;;
28836;SDS011;50669;50.982;11.022;2022-09-29T15:04:42;7.88;;;2.80;;
28836;SDS011;50669;50.982;11.022;2022-09-29T15:07:13;6.88;;;2.63;;
28836;SDS011;50669;50.982;11.022;2022-09-29T15:09:44;4.13;;;1.70;;
28836;SDS011;50669;50.982;11.022;2022-09-29T15:12:22;5.72;;;1.75;;
28836;SDS011;50669;50.982;11.022;2022-09-29T15:14:50;4.97;;;1.50;;
28836;SDS011;50669;50.982;11.022;2022-09-29T15:17:25;26.90;;;4.68;;
28836;SDS011;50669;50.982;11.022;2022-09-29T15:20:11;10.55;;;2.10;;
28836;SDS011;50669;50.982;11.022;2022-09-29T15:23:00;7.30;;;2.63;;
28836;SDS011;50669;50.982;11.022;2022-09-29T15:25:47;4.28;;;1.50;;
28836;SDS011;50669;50.982;11.022;2022-09-29T15:28:35;6.72;;;1.80;;
28836;SDS011;50669;50.982;11.022;2022-09-29T15:31:06;6.40;;;1.92;;
28836;SDS011;50669;50.982;11.022;2022-09-29T15:33:38;5.57;;;1.80;;
28836;SDS011;50669;50.982;11.022;2022-09-29T15:36:13;3.08;;;1.40;;
28836;SDS011;50669;50.982;11.022;2022-09-29T15:38:50;5.78;;;1.50;;
28836;SDS011;50669;50.982;11.022;2022-09-29T15:41:17;4.03;;;2.63;;
28836;SDS011;50669;50.982;11.022;2022-09-29T15:43:56;4.30;;;1.55;;
28836;SDS011;50669;50.982;11.022;2022-09-29T15:49:03;2.70;;;1.85;;
28836;SDS011;50669;50.982;11.022;2022-09-29T15:51:42;3.55;;;1.70;;
28836;SDS011;50669;50.982;11.022;2022-09-29T15:54:18;4.07;;;1.85;;
28836;SDS011;50669;50.982;11.022;2022-09-29T15:56:43;4.68;;;1.88;;
28836;SDS011;50669;50.982;11.022;2022-09-29T15:59:40;3.05;;;1.45;;
28836;SDS011;50669;50.982;11.022;2022-09-29T16:02:16;2.47;;;1.30;;
28836;SDS011;50669;50.982;11.022;2022-09-29T16:05:06;7.45;;;1.75;;
28836;SDS011;50669;50.982;11.022;2022-09-29T16:07:38;6.90;;;2.00;;
28836;SDS011;50669;50.982;11.022;2022-09-29T16:10:16;4.45;;;1.77;;
28836;SDS011;50669;50.982;11.022;2022-09-29T16:15:16;4.93;;;2.20;;
28836;SDS011;50669;50.982;11.022;2022-09-29T16:17:50;5.45;;;2.15;;
28836;SDS011;50669;50.982;11.022;2022-09-29T16:20:18;2.08;;;1.65;;
28836;SDS011;50669;50.982;11.022;2022-09-29T16:22:53;2.80;;;1.90;;
28836;SDS011;50669;50.982;11.022;2022-09-29T16:25:26;2.47;;;1.77;;
28836;SDS011;50669;50.982;11.022;2022-09-29T16:27:56;6.05;;;2.65;;
28836;SDS011;50669;50.982;11.022;2022-09-29T16:33:19;3.47;;;2.15;;
28836;SDS011;50669;50.982;11.022;2022-09-29T16:40:50;6.57;;;2.97;;
28836;SDS011;50669;50.982;11.022;2022-09-29T16:43:22;9.63;;;3.50;;
28836;SDS011;50669;50.982;11.022;2022-09-29T16:45:53;8.50;;;3.65;;
28836;SDS011;50669;50.982;11.022;2022-09-29T16:48:27;9.15;;;3.45;;
28836;SDS011;50669;50.982;11.022;2022-09-29T16:50:55;10.10;;;3.38;;
28836;SDS011;50669;50.982;11.022;2022-09-29T16:53:27;8.25;;;3.95;;
28836;SDS011;50669;50.982;11.022;2022-09-29T16:56:02;8.02;;;3.60;;
28836;SDS011;50669;50.982;11.022;2022-09-29T16:58:33;9.43;;;4.10;;
28836;SDS011;50669;50.982;11.022;2022-09-29T17:01:04;8.30;;;3.70;;
28836;SDS011;50669;50.982;11.022;2022-09-29T17:03:32;9.93;;;5.18;;
28836;SDS011;50669;50.982;11.022;2022-09-29T17:06:01;9.43;;;5.75;;
28836;SDS011;50669;50.982;11.022;2022-09-29T17:08:29;7.40;;;4.05;;
28836;SDS011;50669;50.982;11.022;2022-09-29T17:10:59;10.80;;;5.82;;
28836;SDS011;50669;50.982;11.022;2022-09-29T17:13:31;5.18;;;3.63;;
28836;SDS011;50669;50.982;11.022;2022-09-29T17:16:03;12.95;;;4.13;;
28836;SDS011;50669;50.982;11.022;2022-09-29T17:18:36;8.60;;;5.53;;
28836;SDS011;50669;50.982;11.022;2022-09-29T17:21:02;9.88;;;6.22;;
28836;SDS011;50669;50.982;11.022;2022-09-29T17:23:27;9.60;;;6.70;;
28836;SDS011;50669;50.982;11.022;2022-09-29T17:25:54;11.48;;;6.70;;
28836;SDS011;50669;50.982;11.022;2022-09-29T17:28:39;11.30;;;6.30;;
28836;SDS011;50669;50.982;11.022;2022-09-29T17:31:07;10.88;;;7.20;;
28836;SDS011;50669;50.982;11.022;2022-09-29T17:33:34;8.05;;;5.68;;
28836;SDS011;50669;50.982;11.022;2022-09-29T17:36:01;8.73;;;5.80;;
28836;SDS011;50669;50.982;11.022;2022-09-29T17:38:29;7.65;;;5.35;;
28836;SDS011;50669;50.982;11.022;2022-09-29T17:40:59;7.13;;;4.93;;
28836;SDS011;50669;50.982;11.022;2022-09-29T17:43:30;5.82;;;4.38;;
28836;SDS011;50669;50.982;11.022;2022-09-29T17:45:56;4.50;;;3.45;;
28836;SDS011;50669;50.982;11.022;2022-09-29T17:48:23;5.65;;;3.65;;
28836;SDS011;50669;50.982;11.022;2022-09-29T17:50:50;6.97;;;3.80;;
28836;SDS011;50669;50.982;11.022;2022-09-29T17:53:19;3.67;;;3.00;;
28836;SDS011;50669;50.982;11.022;2022-09-29T17:55:46;4.82;;;3.88;;
28836;SDS011;50669;50.982;11.022;2022-09-29T17:58:13;6.88;;;4.00;;
28836;SDS011;50669;50.982;11.022;2022-09-29T18:00:41;4.53;;;3.33;;
28836;SDS011;50669;50.982;11.022;2022-09-29T18:03:08;4.95;;;2.92;;
28836;SDS011;50669;50.982;11.022;2022-09-29T18:05:36;5.93;;;3.38;;
28836;SDS011;50669;50.982;11.022;2022-09-29T18:08:04;5.80;;;2.85;;
28836;SDS011;50669;50.982;11.022;2022-09-29T18:10:40;2.83;;;2.35;;
28836;SDS011;50669;50.982;11.022;2022-09-29T18:13:07;4.40;;;2.00;;
28836;SDS011;50669;50.982;11.022;2022-09-29T18:15:36;3.40;;;2.00;;
28836;SDS011;50669;50.982;11.022;2022-09-29T18:18:03;2.35;;;1.58;;